sensor_id;sensor_type;location;lat;lon;timestamp;P1;P2;P0
41382;PMS5003;27971;53.902;9.118;2022-09-13T18:22:25;3.84;3.26;
41382;PMS5003;27971;53.902;9.118;2022-09-13T18:24:27;6.26;4.88;
41382;PMS5003;27971;53.902;9.118;2022-09-13T18:26:31;6.39;4.74;
41382;PMS5003;27971;53.902;9.118;2022-09-13T18:28:34;7.63;4.49;
41382;PMS5003;27971;53.902;9.118;2022-09-13T18:30:37;9.23;5.88;
41382;PMS5003;27971;53.902;9.118;2022-09-13T18:32:40;6.89;4.92;
41382;PMS5003;27971;53.902;9.118;2022-09-13T18:34:42;6.64;5.13;
41382;PMS5003;27971;53.902;9.118;2022-09-13T18:36:44;7.22;4.7;
41382;PMS5003;27971;53.902;9.118;2022-09-13T18:38:50;8.63;6.01;
41382;PMS5003;27971;53.902;9.118;2022-09-13T18:41:07;8.77;6.44;
41382;PMS5003;27971;53.902;9.118;2022-09-13T18:42:53;7.35;5.32;
41382;PMS5003;27971;53.902;9.118;2022-09-13T18:44:56;7.01;5.33;
41382;PMS5003;27971;53.902;9.118;2022-09-13T18:46:59;8.14;5.6;
41382;PMS5003;27971;53.902;9.118;2022-09-13T18:49:03;6.86;4.65;
41382;PMS5003;27971;53.902;9.118;2022-09-13T18:51:07;6.76;4.0;
41382;PMS5003;27971;53.902;9.118;2022-09-13T18:53:08;7.09;4.38;
41382;PMS5003;27971;53.902;9.118;2022-09-13T18:55:12;6.33;4.37;
41382;PMS5003;27971;53.902;9.118;2022-09-13T18:57:14;7.84;5.6;
41382;PMS5003;27971;53.902;9.118;2022-09-13T18:59:17;7.5;6.13;
41382;PMS5003;27971;53.902;9.118;2022-09-13T19:01:20;6.61;5.45;
41382;PMS5003;27971;53.902;9.118;2022-09-13T19:03:22;7.27;5.7;
41382;PMS5003;27971;53.902;9.118;2022-09-13T19:05:28;8.33;4.97;
41382;PMS5003;27971;53.902;9.118;2022-09-13T19:07:28;7.03;4.51;
41382;PMS5003;27971;53.902;9.118;2022-09-13T19:09:31;5.21;4.94;
41382;PMS5003;27971;53.902;9.118;2022-09-13T19:11:36;6.71;4.69;
41382;PMS5003;27971;53.902;9.118;2022-09-13T19:13:37;7.2;4.91;
41382;PMS5003;27971;53.902;9.118;2022-09-13T19:15:41;6.57;5.26;
41382;PMS5003;27971;53.902;9.118;2022-09-13T19:17:45;7.35;5.69;
41382;PMS5003;27971;53.902;9.118;2022-09-13T19:19:48;7.49;6.07;
41382;PMS5003;27971;53.902;9.118;2022-09-13T19:21:50;6.31;3.98;
41382;PMS5003;27971;53.902;9.118;2022-09-13T19:23:53;5.38;4.32;
41382;PMS5003;27971;53.902;9.118;2022-09-13T19:26:02;5.93;5.19;
41382;PMS5003;27971;53.902;9.118;2022-09-13T19:27:58;7.4;4.97;
41382;PMS5003;27971;53.902;9.118;2022-09-13T19:30:00;7.28;5.07;
41382;PMS5003;27971;53.902;9.118;2022-09-13T19:32:03;4.71;3.73;
41382;PMS5003;27971;53.902;9.118;2022-09-13T19:34:07;7.26;4.74;
41382;PMS5003;27971;53.902;9.118;2022-09-13T19:36:10;7.35;4.61;
41382;PMS5003;27971;53.902;9.118;2022-09-13T19:38:14;5.17;4.24;
41382;PMS5003;27971;53.902;9.118;2022-09-13T19:40:16;5.26;4.52;
41382;PMS5003;27971;53.902;9.118;2022-09-13T19:42:18;4.94;3.65;
41382;PMS5003;27971;53.902;9.118;2022-09-13T19:44:21;5.58;3.7;
41382;PMS5003;27971;53.902;9.118;2022-09-13T19:46:31;5.41;4.52;
41382;PMS5003;27971;53.902;9.118;2022-09-13T19:48:28;5.33;4.03;
41382;PMS5003;27971;53.902;9.118;2022-09-13T19:50:30;6.01;4.59;
41382;PMS5003;27971;53.902;9.118;2022-09-13T19:52:33;6.0;4.7;
41382;PMS5003;27971;53.902;9.118;2022-09-13T19:54:35;5.95;4.02;
41382;PMS5003;27971;53.902;9.118;2022-09-13T19:56:39;4.39;4.14;
41382;PMS5003;27971;53.902;9.118;2022-09-13T19:58:41;7.58;4.87;
41382;PMS5003;27971;53.902;9.118;2022-09-13T20:00:44;4.48;4.29;
41382;PMS5003;27971;53.902;9.118;2022-09-13T20:02:47;5.67;4.4;
41382;PMS5003;27971;53.902;9.118;2022-09-13T20:04:50;6.39;4.58;
41382;PMS5003;27971;53.902;9.118;2022-09-13T20:06:53;5.62;4.37;
41382;PMS5003;27971;53.902;9.118;2022-09-13T20:08:57;5.88;4.6;
41382;PMS5003;27971;53.902;9.118;2022-09-13T20:11:02;6.05;4.49;
41382;PMS5003;27971;53.902;9.118;2022-09-13T20:13:02;6.8;5.18;
41382;PMS5003;27971;53.902;9.118;2022-09-13T20:15:06;6.0;4.58;
41382;PMS5003;27971;53.902;9.118;2022-09-13T20:17:08;4.87;4.1;
41382;PMS5003;27971;53.902;9.118;2022-09-13T20:19:13;5.36;3.68;
41382;PMS5003;27971;53.902;9.118;2022-09-13T20:21:16;5.83;4.17;
41382;PMS5003;27971;53.902;9.118;2022-09-13T20:23:18;5.41;4.34;
41382;PMS5003;27971;53.902;9.118;2022-09-13T20:25:21;6.04;4.58;
41382;PMS5003;27971;53.902;9.118;2022-09-13T20:27:24;7.17;4.99;
41382;PMS5003;27971;53.902;9.118;2022-09-13T20:29:26;5.74;4.7;
41382;PMS5003;27971;53.902;9.118;2022-09-13T20:31:30;5.21;4.45;
41382;PMS5003;27971;53.902;9.118;2022-09-13T20:33:33;7.31;4.95;
41382;PMS5003;27971;53.902;9.118;2022-09-13T20:35:37;4.07;3.21;
41382;PMS5003;27971;53.902;9.118;2022-09-13T20:37:43;4.62;3.23;
41382;PMS5003;27971;53.902;9.118;2022-09-13T20:39:43;5.12;3.82;
41382;PMS5003;27971;53.902;9.118;2022-09-13T20:41:46;7.25;4.21;
41382;PMS5003;27971;53.902;9.118;2022-09-13T20:43:48;5.7;4.31;
41382;PMS5003;27971;53.902;9.118;2022-09-13T20:45:54;5.62;4.12;
41382;PMS5003;27971;53.902;9.118;2022-09-13T20:47:54;7.22;4.27;
41382;PMS5003;27971;53.902;9.118;2022-09-13T20:49:57;4.64;3.48;
41382;PMS5003;27971;53.902;9.118;2022-09-13T20:52:05;7.01;5.19;
41382;PMS5003;27971;53.902;9.118;2022-09-13T20:54:03;5.35;4.14;
41382;PMS5003;27971;53.902;9.118;2022-09-13T20:56:07;5.11;3.87;
41382;PMS5003;27971;53.902;9.118;2022-09-13T20:58:08;4.94;3.75;
41382;PMS5003;27971;53.902;9.118;2022-09-13T21:00:11;6.05;3.32;
41382;PMS5003;27971;53.902;9.118;2022-09-13T21:02:13;4.49;3.75;
41382;PMS5003;27971;53.902;9.118;2022-09-13T21:04:17;5.11;4.86;
41382;PMS5003;27971;53.902;9.118;2022-09-13T21:06:20;4.67;3.39;
41382;PMS5003;27971;53.902;9.118;2022-09-13T21:08:22;4.75;3.92;
41382;PMS5003;27971;53.902;9.118;2022-09-13T21:10:24;4.67;3.87;
41382;PMS5003;27971;53.902;9.118;2022-09-13T21:12:28;5.39;4.44;
41382;PMS5003;27971;53.902;9.118;2022-09-13T21:14:30;4.92;2.98;
41382;PMS5003;27971;53.902;9.118;2022-09-13T21:16:42;4.18;3.86;
41382;PMS5003;27971;53.902;9.118;2022-09-13T21:18:35;4.23;3.55;
41382;PMS5003;27971;53.902;9.118;2022-09-13T21:20:37;5.87;4.63;
41382;PMS5003;27971;53.902;9.118;2022-09-13T21:22:40;4.91;4.11;
41382;PMS5003;27971;53.902;9.118;2022-09-13T21:24:43;4.26;3.46;
41382;PMS5003;27971;53.902;9.118;2022-09-13T21:26:46;4.24;3.0;
41382;PMS5003;27971;53.902;9.118;2022-09-13T21:28:49;4.44;3.17;
41382;PMS5003;27971;53.902;9.118;2022-09-13T21:30:55;4.87;3.38;
41382;PMS5003;27971;53.902;9.118;2022-09-13T21:32:54;4.33;3.36;
41382;PMS5003;27971;53.902;9.118;2022-09-13T21:34:56;6.57;4.49;
41382;PMS5003;27971;53.902;9.118;2022-09-13T21:37:01;5.25;3.34;
41382;PMS5003;27971;53.902;9.118;2022-09-13T21:39:02;6.3;4.83;
41382;PMS5003;27971;53.902;9.118;2022-09-13T21:41:07;4.69;3.8;
41382;PMS5003;27971;53.902;9.118;2022-09-13T21:43:08;4.59;3.3;
41382;PMS5003;27971;53.902;9.118;2022-09-13T21:45:11;4.61;3.92;
41382;PMS5003;27971;53.902;9.118;2022-09-13T21:47:14;5.38;3.88;
41382;PMS5003;27971;53.902;9.118;2022-09-13T21:49:16;5.9;3.48;
41382;PMS5003;27971;53.902;9.118;2022-09-13T21:51:20;4.99;3.67;
41382;PMS5003;27971;53.902;9.118;2022-09-13T21:53:21;5.08;3.83;
41382;PMS5003;27971;53.902;9.118;2022-09-13T21:55:25;4.78;3.84;
41382;PMS5003;27971;53.902;9.118;2022-09-13T21:57:30;4.68;3.24;
41382;PMS5003;27971;53.902;9.118;2022-09-13T21:59:31;3.71;3.25;
41382;PMS5003;27971;53.902;9.118;2022-09-13T22:01:34;4.92;3.74;
41382;PMS5003;27971;53.902;9.118;2022-09-13T22:03:38;4.18;3.81;
41382;PMS5003;27971;53.902;9.118;2022-09-13T22:05:40;5.54;4.18;
41382;PMS5003;27971;53.902;9.118;2022-09-13T22:07:41;4.6;4.02;
41382;PMS5003;27971;53.902;9.118;2022-09-13T22:09:44;4.76;3.59;
41382;PMS5003;27971;53.902;9.118;2022-09-13T22:11:48;4.59;3.54;
41382;PMS5003;27971;53.902;9.118;2022-09-13T22:13:51;3.32;2.88;
41382;PMS5003;27971;53.902;9.118;2022-09-13T22:15:54;4.46;3.29;
41382;PMS5003;27971;53.902;9.118;2022-09-13T22:17:56;3.38;2.94;
41382;PMS5003;27971;53.902;9.118;2022-09-13T22:20:00;4.42;4.06;
41382;PMS5003;27971;53.902;9.118;2022-09-13T22:22:03;4.55;3.8;
41382;PMS5003;27971;53.902;9.118;2022-09-13T22:24:06;5.6;3.51;
41382;PMS5003;27971;53.902;9.118;2022-09-13T22:26:09;3.49;3.08;
41382;PMS5003;27971;53.902;9.118;2022-09-13T22:28:12;5.13;4.07;
41382;PMS5003;27971;53.902;9.118;2022-09-13T22:30:15;5.84;3.96;
41382;PMS5003;27971;53.902;9.118;2022-09-13T22:32:18;3.04;2.89;
41382;PMS5003;27971;53.902;9.118;2022-09-13T22:34:21;4.48;3.42;
41382;PMS5003;27971;53.902;9.118;2022-09-13T22:36:24;4.2;3.42;
41382;PMS5003;27971;53.902;9.118;2022-09-13T22:38:27;3.89;2.79;
41382;PMS5003;27971;53.902;9.118;2022-09-13T22:40:29;4.71;3.53;
41382;PMS5003;27971;53.902;9.118;2022-09-13T22:42:35;4.32;3.69;
41382;PMS5003;27971;53.902;9.118;2022-09-13T22:44:35;5.22;4.18;
41382;PMS5003;27971;53.902;9.118;2022-09-13T22:46:38;4.74;3.95;
41382;PMS5003;27971;53.902;9.118;2022-09-13T22:48:40;5.3;3.04;
41382;PMS5003;27971;53.902;9.118;2022-09-13T22:50:47;4.98;3.65;
41382;PMS5003;27971;53.902;9.118;2022-09-13T22:52:45;2.94;2.12;
41382;PMS5003;27971;53.902;9.118;2022-09-13T22:54:48;4.62;3.08;
41382;PMS5003;27971;53.902;9.118;2022-09-13T22:56:51;4.74;3.37;
41382;PMS5003;27971;53.902;9.118;2022-09-13T22:58:55;4.7;3.59;
41382;PMS5003;27971;53.902;9.118;2022-09-13T23:01:00;4.61;4.15;
41382;PMS5003;27971;53.902;9.118;2022-09-13T23:02:59;5.43;4.43;
41382;PMS5003;27971;53.902;9.118;2022-09-13T23:05:03;4.94;4.36;
41382;PMS5003;27971;53.902;9.118;2022-09-13T23:07:06;5.55;3.8;
41382;PMS5003;27971;53.902;9.118;2022-09-13T23:09:09;3.35;2.96;
41382;PMS5003;27971;53.902;9.118;2022-09-13T23:11:12;4.23;3.21;
41382;PMS5003;27971;53.902;9.118;2022-09-13T23:13:14;3.86;3.08;
41382;PMS5003;27971;53.902;9.118;2022-09-13T23:15:16;2.88;2.44;
41382;PMS5003;27971;53.902;9.118;2022-09-13T23:17:19;4.29;3.84;
41382;PMS5003;27971;53.902;9.118;2022-09-13T23:19:23;4.93;3.48;
41382;PMS5003;27971;53.902;9.118;2022-09-13T23:21:24;5.86;4.15;
41382;PMS5003;27971;53.902;9.118;2022-09-13T23:23:26;3.29;2.23;
41382;PMS5003;27971;53.902;9.118;2022-09-13T23:25:29;3.64;3.19;
41382;PMS5003;27971;53.902;9.118;2022-09-13T23:27:33;3.6;3.18;
41382;PMS5003;27971;53.902;9.118;2022-09-13T23:29:39;4.12;3.38;
41382;PMS5003;27971;53.902;9.118;2022-09-13T23:31:36;4.62;3.6;
41382;PMS5003;27971;53.902;9.118;2022-09-13T23:33:40;5.73;3.79;
41382;PMS5003;27971;53.902;9.118;2022-09-13T23:35:42;4.55;3.17;
41382;PMS5003;27971;53.902;9.118;2022-09-13T23:37:46;4.55;3.16;
41382;PMS5003;27971;53.902;9.118;2022-09-13T23:39:50;4.15;2.53;
41382;PMS5003;27971;53.902;9.118;2022-09-13T23:41:50;3.86;3.25;
41382;PMS5003;27971;53.902;9.118;2022-09-13T23:43:57;4.33;3.11;
41382;PMS5003;27971;53.902;9.118;2022-09-13T23:45:55;2.49;2.06;
41382;PMS5003;27971;53.902;9.118;2022-09-13T23:47:57;3.56;2.89;
41382;PMS5003;27971;53.902;9.118;2022-09-13T23:50:01;3.91;2.66;
41382;PMS5003;27971;53.902;9.118;2022-09-13T23:52:03;3.48;2.97;
41382;PMS5003;27971;53.902;9.118;2022-09-13T23:54:07;3.79;2.81;
41382;PMS5003;27971;53.902;9.118;2022-09-13T23:56:09;2.93;2.03;
41382;PMS5003;27971;53.902;9.118;2022-09-13T23:58:14;2.49;2.26;
